Time;durP1;ratioP1;P1;durP2;ratioP2;P2;SDS_P1;SDS_P2;PMS_P1;PMS_P2;Temp;Humidity;BMP_temperature;BMP_pressure;BME280_temperature;BME280_humidity;BME280_pressure;Samples;Min_cycle;Max_cycle;Signal;HPM_P1;HPM_P2
2022/12/09 00:02:07;;;;;;;17.97;15.10;;;;;;;1.74;100.00;100678.16;5135208;27;20467;-37
2022/12/09 00:04:33;;;;;;;16.87;15.13;;;;;;;1.72;100.00;100680.16;5135547;27;20027;-37
2022/12/09 00:06:58;;;;;;;17.17;15.40;;;;;;;1.76;100.00;100670.81;5135127;27;20483;-37
2022/12/09 00:09:24;;;;;;;16.67;14.97;;;;;;;1.79;100.00;100676.59;5135087;27;20114;-37
2022/12/09 00:11:51;;;;;;;18.43;16.53;;;;;;;1.79;100.00;100676.59;5135587;27;20666;-37
2022/12/09 00:14:17;;;;;;;18.17;15.65;;;;;;;1.78;100.00;100672.28;5134600;27;20134;-37
2022/12/09 00:16:42;;;;;;;18.45;16.52;;;;;;;1.82;100.00;100679.94;5134680;27;20060;-37
2022/12/09 00:19:08;;;;;;;16.13;14.43;;;;;;;1.89;100.00;100675.53;5135739;27;20030;-37
2022/12/09 00:21:33;;;;;;;17.33;15.00;;;;;;;1.94;100.00;100674.00;5134850;27;20028;-37
2022/12/09 00:24:01;;;;;;;18.52;15.43;;;;;;;1.89;100.00;100660.38;5135405;27;20520;-37
2022/12/09 00:26:27;;;;;;;19.45;16.23;;;;;;;1.96;100.00;100674.66;5135260;27;20055;-37
2022/12/09 00:28:53;;;;;;;18.48;16.65;;;;;;;1.93;100.00;100667.00;5134841;27;20027;-38
2022/12/09 00:31:23;;;;;;;16.65;14.88;;;;;;;2.02;100.00;100673.09;5134683;27;20027;-37
2022/12/09 00:33:49;;;;;;;16.98;15.32;;;;;;;2.09;100.00;100670.53;5134921;27;20358;-37
2022/12/09 00:36:16;;;;;;;;;;;;;;;2.13;100.00;100679.84;5134990;27;20037;-37
2022/12/09 00:38:41;;;;;;;19.33;17.27;;;;;;;2.02;100.00;100668.59;5135135;27;19922;-37
2022/12/09 00:41:08;;;;;;;19.73;17.63;;;;;;;1.94;100.00;100667.81;5134848;27;20382;-37
2022/12/09 00:43:33;;;;;;;;;;;;;;;2.13;100.00;100672.66;5135466;27;20383;-37
2022/12/09 00:45:59;;;;;;;19.92;16.70;;;;;;;2.02;100.00;100681.09;5134436;27;19911;-37
2022/12/09 00:48:25;;;;;;;20.23;18.17;;;;;;;1.98;100.00;100679.81;5135198;27;20118;-37
2022/12/09 00:50:50;;;;;;;19.13;17.00;;;;;;;2.08;100.00;100684.91;5134268;27;20038;-37
2022/12/09 00:53:16;;;;;;;18.27;16.40;;;;;;;2.11;100.00;100682.69;5134427;27;20118;-37
2022/12/09 00:55:43;;;;;;;16.40;14.70;;;;;;;2.17;100.00;100667.81;5133955;27;20042;-37
2022/12/09 00:58:08;;;;;;;18.48;16.58;;;;;;;2.04;100.00;100663.91;5134272;27;20031;-37
2022/12/09 01:00:33;;;;;;;19.83;17.73;;;;;;;1.85;100.00;100647.56;5133750;27;20034;-37
2022/12/09 01:02:59;;;;;;;20.60;18.53;;;;;;;2.00;100.00;100667.09;5134436;27;20379;-37
2022/12/09 01:05:24;;;;;;;19.33;17.17;;;;;;;1.95;100.00;100653.47;5132970;27;20034;-37
2022/12/09 01:07:49;;;;;;;21.83;19.37;;;;;;;1.93;100.00;100667.00;5132717;27;20438;-37
2022/12/09 01:10:15;;;;;;;19.50;17.40;;;;;;;2.00;100.00;100667.09;5134125;27;20058;-37
2022/12/09 01:12:41;;;;;;;20.02;17.95;;;;;;;2.03;100.00;100672.91;5134117;27;20051;-37
2022/12/09 01:15:08;;;;;;;20.52;18.33;;;;;;;1.97;100.00;100656.81;5134202;27;20051;-37
2022/12/09 01:17:35;;;;;;;22.33;19.90;;;;;;;1.88;100.00;100645.38;5134154;27;20055;-37
2022/12/09 01:20:01;;;;;;;22.17;19.58;;;;;;;2.05;100.00;100668.25;5134197;27;20034;-37
2022/12/09 01:22:27;;;;;;;26.90;21.77;;;;;;;2.03;100.00;100672.09;5134675;27;20340;-37
2022/12/09 01:24:52;;;;;;;22.27;19.95;;;;;;;2.05;100.00;100673.59;5133796;27;20019;-37
2022/12/09 01:27:18;;;;;;;22.07;19.77;;;;;;;2.13;100.00;100666.50;5134192;27;20446;-37
2022/12/09 01:29:43;;;;;;;23.63;18.57;;;;;;;2.25;100.00;100665.91;5134127;27;20536;-37
2022/12/09 01:32:08;;;;;;;22.87;20.03;;;;;;;2.25;100.00;100679.25;5133814;27;20491;-37
2022/12/09 01:34:34;;;;;;;20.77;18.17;;;;;;;2.22;100.00;100670.75;5134034;27;20031;-37
2022/12/09 01:36:59;;;;;;;22.10;19.80;;;;;;;2.21;100.00;100680.63;5133681;27;20027;-37
2022/12/09 01:39:25;;;;;;;25.67;21.20;;;;;;;2.18;100.00;100686.28;5132371;28;20028;-37
2022/12/09 01:41:50;;;;;;;24.30;20.73;;;;;;;2.18;100.00;100693.47;5133787;27;20031;-37
2022/12/09 01:44:23;;;;;;;25.73;21.85;;;;;;;2.14;100.00;100684.16;5133733;27;20467;-37
2022/12/09 01:46:54;;;;;;;25.10;20.30;;;;;;;2.19;100.00;100695.94;5132764;28;20370;-37
2022/12/09 01:49:24;;;;;;;26.50;21.23;;;;;;;2.13;100.00;100688.69;5134409;27;20355;-37
2022/12/09 01:52:15;;;;;;;28.85;23.15;;;;;;;2.11;100.00;100684.53;5134129;27;20031;-37
2022/12/09 01:54:44;;;;;;;27.08;23.35;;;;;;;2.09;100.00;100682.03;5133286;28;20046;-37
2022/12/09 01:57:10;;;;;;;29.50;22.05;;;;;;;2.14;100.00;100695.66;5133267;27;20490;-37
2022/12/09 01:59:36;;;;;;;31.23;23.83;;;;;;;2.01;100.00;100690.13;5133871;27;20027;-37
2022/12/09 02:02:02;;;;;;;;;;;;;;;2.05;100.00;100686.91;5133684;27;20126;-37
2022/12/09 02:04:30;;;;;;;28.95;23.17;;;;;;;1.96;100.00;100684.50;5133644;27;19915;-37
2022/12/09 02:06:58;;;;;;;27.13;22.98;;;;;;;1.98;100.00;100685.13;5134228;27;20057;-37
2022/12/09 02:09:24;;;;;;;31.00;24.55;;;;;;;1.90;100.00;100679.84;5133809;27;20031;-37
2022/12/09 02:12:19;;;;;;;29.77;24.88;;;;;;;1.94;100.00;100687.31;5133150;27;20030;-37
2022/12/09 02:14:52;;;;;;;29.95;24.40;;;;;;;1.94;100.00;100683.81;5056705;28;20048;-37
2022/12/09 02:17:32;;;;;;;28.10;21.50;;;;;;;2.12;100.00;100680.88;5073930;28;20056;-37
2022/12/09 02:20:22;;;;;;;31.05;24.15;;;;;;;2.19;100.00;100689.78;5073779;28;20047;-37
2022/12/09 02:23:20;;;;;;;32.53;23.05;;;;;;;2.25;100.00;100678.41;5074285;28;20033;-37
2022/12/09 02:25:55;;;;;;;33.58;24.40;;;;;;;2.17;100.00;100673.97;5036905;28;20475;-37
2022/12/09 02:28:32;;;;;;;30.35;23.30;;;;;;;2.13;100.00;100683.34;5074093;28;20040;-37
2022/12/09 02:31:36;;;;;;;30.08;23.00;;;;;;;2.18;100.00;100680.97;5073401;28;20512;-37
2022/12/09 02:34:13;;;;;;;29.58;22.98;;;;;;;2.10;100.00;100683.72;5013862;28;20045;-37
2022/12/09 02:37:05;;;;;;;27.60;20.85;;;;;;;2.16;100.00;100687.50;5013716;28;20029;-37
2022/12/09 02:39:52;;;;;;;32.05;24.17;;;;;;;2.05;100.00;100686.09;4974522;28;20042;-37
2022/12/09 02:42:21;;;;;;;28.58;22.65;;;;;;;1.99;100.00;100674.28;4974854;28;20035;-37
2022/12/09 02:44:49;;;;;;;28.08;21.85;;;;;;;1.97;100.00;100681.66;4974945;28;20560;-37
2022/12/09 02:47:17;;;;;;;29.00;23.13;;;;;;;1.93;100.00;100692.84;4974927;28;20089;-37
2022/12/09 02:49:46;;;;;;;29.65;22.27;;;;;;;2.01;100.00;100696.28;4974428;28;20066;-37
2022/12/09 02:52:13;;;;;;;33.67;24.05;;;;;;;1.88;100.00;100676.56;5000349;28;20042;-37
2022/12/09 02:54:39;;;;;;;38.10;26.05;;;;;;;1.82;100.00;100674.59;5013367;28;20026;-36
2022/12/09 02:57:13;;;;;;;33.72;24.45;;;;;;;1.82;100.00;100669.28;4996964;28;20042;-37
2022/12/09 02:59:39;;;;;;;28.25;21.77;;;;;;;1.88;100.00;100664.03;5013158;28;20482;-36
2022/12/09 03:02:13;;;;;;;38.73;26.00;;;;;;;1.74;100.00;100659.47;5013162;28;20041;-36
2022/12/09 03:04:41;;;;;;;34.70;25.05;;;;;;;1.85;100.00;100674.22;5013824;28;20475;-37
2022/12/09 03:07:39;;;;;;;38.85;25.83;;;;;;;1.84;100.00;100667.25;5013047;28;20061;-37
2022/12/09 03:10:25;;;;;;;40.38;28.25;;;;;;;1.65;100.00;100661.38;4993327;28;20050;-37
2022/12/09 03:12:57;;;;;;;38.65;26.55;;;;;;;1.82;100.00;100664.75;4978365;28;20129;-37
2022/12/09 03:15:28;;;;;;;31.90;24.48;;;;;;;1.94;100.00;100658.00;4997115;28;20133;-36
2022/12/09 03:17:57;;;;;;;40.08;27.38;;;;;;;1.95;100.00;100665.00;5093318;28;20121;-36
2022/12/09 03:20:26;;;;;;;38.53;26.55;;;;;;;2.03;100.00;100656.09;5093290;28;20040;-36
2022/12/09 03:22:56;;;;;;;37.97;27.05;;;;;;;2.02;100.00;100654.44;5093343;28;20074;-36
2022/12/09 03:25:37;;;;;;;40.45;28.85;;;;;;;2.00;100.00;100659.09;5092170;28;20028;-36
2022/12/09 03:28:15;;;;;;;44.92;29.33;;;;;;;2.00;100.00;100657.28;5075915;28;20044;-37
2022/12/09 03:30:43;;;;;;;40.85;28.08;;;;;;;2.05;100.00;100644.25;5093362;28;20127;-37
2022/12/09 03:33:11;;;;;;;49.08;29.92;;;;;;;1.93;100.00;100644.84;5092574;28;20127;-36
2022/12/09 03:35:51;;;;;;;48.53;31.25;;;;;;;1.89;100.00;100649.69;5092481;28;20024;-37
2022/12/09 03:38:19;;;;;;;40.90;27.77;;;;;;;1.79;100.00;100628.59;5093259;28;20040;-37
2022/12/09 03:40:55;;;;;;;52.67;31.15;;;;;;;1.80;100.00;100654.25;5092651;28;20408;-37
2022/12/09 03:43:32;;;;;;;46.67;32.25;;;;;;;1.84;100.00;100644.06;5092766;28;20534;-37
2022/12/09 03:45:58;;;;;;;45.75;31.30;;;;;;;1.73;100.00;100640.00;5097984;27;20067;-36
2022/12/09 03:48:24;;;;;;;46.05;28.80;;;;;;;1.85;100.00;100634.22;5135688;27;20027;-37
2022/12/09 03:50:56;;;;;;;49.25;34.00;;;;;;;1.80;100.00;100640.94;5135573;27;20031;-37
2022/12/09 03:53:35;;;;;;;45.03;30.38;;;;;;;1.78;100.00;100645.63;5136081;27;20039;-37
2022/12/09 03:56:07;;;;;;;46.03;32.42;;;;;;;1.79;100.00;100641.13;5136141;27;20079;-37
2022/12/09 03:58:36;;;;;;;46.10;31.60;;;;;;;1.82;100.00;100639.94;5135129;27;20359;-37
2022/12/09 04:01:02;;;;;;;48.33;31.63;;;;;;;1.89;100.00;100640.88;5135114;27;20030;-37
2022/12/09 04:03:28;;;;;;;43.97;29.25;;;;;;;2.08;100.00;100647.56;5135179;27;20472;-37
2022/12/09 04:05:53;;;;;;;41.33;28.47;;;;;;;2.12;100.00;100644.34;5135366;27;20038;-37
2022/12/09 04:08:18;;;;;;;46.73;30.87;;;;;;;2.05;100.00;100636.25;5135516;27;20031;-37
2022/12/09 04:10:43;;;;;;;57.73;34.90;;;;;;;2.03;100.00;100646.25;5135282;27;20027;-37
2022/12/09 04:13:09;;;;;;;49.23;32.10;;;;;;;1.97;100.00;100630.16;5135173;27;20084;-37
2022/12/09 04:15:34;;;;;;;53.67;33.40;;;;;;;1.98;100.00;100639.78;5134708;27;20043;-37
2022/12/09 04:17:59;;;;;;;49.40;32.17;;;;;;;2.03;100.00;100640.91;5135394;27;20098;-37
2022/12/09 04:20:25;;;;;;;48.97;31.83;;;;;;;1.97;100.00;100630.16;5135051;27;20098;-37
2022/12/09 04:22:50;;;;;;;48.70;31.13;;;;;;;1.95;100.00;100627.66;5134805;27;20390;-37
2022/12/09 04:25:15;;;;;;;51.60;35.73;;;;;;;1.97;100.00;100646.97;5134996;27;20340;-37
2022/12/09 04:27:41;;;;;;;49.17;32.10;;;;;;;1.96;100.00;100637.31;5135454;27;20031;-37
2022/12/09 04:30:07;;;;;;;38.17;27.77;;;;;;;2.14;100.00;100638.81;5134608;27;20391;-37
2022/12/09 04:32:32;;;;;;;52.45;34.38;;;;;;;2.03;100.00;100640.09;5134745;27;20038;-37
2022/12/09 04:34:57;;;;;;;45.23;31.90;;;;;;;2.09;100.00;100636.69;5134124;27;20027;-36
2022/12/09 04:37:23;;;;;;;42.20;29.33;;;;;;;2.16;100.00;100623.47;5133929;27;20019;-36
2022/12/09 04:39:48;;;;;;;49.97;33.77;;;;;;;2.09;100.00;100628.69;5135183;27;20023;-36
2022/12/09 04:42:13;;;;;;;45.23;33.60;;;;;;;2.05;100.00;100622.09;5134823;27;20076;-36
2022/12/09 04:44:39;;;;;;;53.00;34.53;;;;;;;1.99;100.00;100618.28;5133563;27;20023;-36
2022/12/09 04:47:04;;;;;;;45.33;32.00;;;;;;;2.08;100.00;100628.88;5134500;27;20428;-36
2022/12/09 04:49:30;;;;;;;45.17;31.67;;;;;;;2.06;100.00;100629.06;5134521;27;20027;-36
2022/12/09 04:51:55;;;;;;;45.90;32.13;;;;;;;2.04;100.00;100631.91;5134128;27;20073;-37
2022/12/09 04:54:21;;;;;;;43.50;31.57;;;;;;;2.09;100.00;100634.03;5134901;27;20030;-36
2022/12/09 04:56:47;;;;;;;55.90;35.17;;;;;;;1.99;100.00;100626.28;5132776;27;20035;-36
2022/12/09 04:59:13;;;;;;;;;;;;;;;2.09;100.00;100638.53;5134819;27;20062;-37
2022/12/09 05:01:38;;;;;;;46.63;32.90;;;;;;;2.05;100.00;100632.75;5134721;27;19908;-37
2022/12/09 05:04:04;;;;;;;48.13;33.80;;;;;;;1.98;100.00;100637.97;5134941;27;20050;-36
2022/12/09 05:06:29;;;;;;;53.70;32.50;;;;;;;2.06;100.00;100639.75;5134290;27;20112;-37
2022/12/09 05:08:54;;;;;;;53.70;34.53;;;;;;;2.08;100.00;100642.22;5132832;27;20391;-36
2022/12/09 05:11:22;;;;;;;52.40;35.57;;;;;;;2.01;100.00;100637.59;5132885;27;20463;-37
2022/12/09 05:13:47;;;;;;;53.58;33.40;;;;;;;1.96;100.00;100623.16;5133806;27;20592;-37
2022/12/09 05:16:15;;;;;;;44.63;29.37;;;;;;;2.12;100.00;100638.19;5133996;27;20143;-37
2022/12/09 05:18:40;;;;;;;53.17;35.53;;;;;;;2.02;100.00;100638.44;5133755;27;20509;-37
2022/12/09 05:21:08;;;;;;;48.30;33.17;;;;;;;2.10;100.00;100638.38;5133705;27;20106;-37
2022/12/09 05:23:33;;;;;;;50.03;33.08;;;;;;;2.09;100.00;100634.03;5134254;27;20047;-37
2022/12/09 05:26:05;;;;;;;50.95;34.08;;;;;;;2.04;100.00;100636.41;5133628;27;20439;-37
2022/12/09 05:28:31;;;;;;;46.75;32.03;;;;;;;1.94;100.00;100614.50;5132618;28;20111;-37
2022/12/09 05:31:06;;;;;;;49.20;34.33;;;;;;;2.05;100.00;100638.09;5133869;27;20384;-36
2022/12/09 05:33:31;;;;;;;44.28;30.63;;;;;;;2.10;100.00;100640.19;5134002;27;20027;-37
2022/12/09 05:35:57;;;;;;;48.67;33.92;;;;;;;2.03;100.00;100629.41;5133893;27;20039;-37
2022/12/09 05:38:23;;;;;;;49.35;32.70;;;;;;;1.94;100.00;100618.00;5134717;27;20201;-37
2022/12/09 05:40:49;;;;;;;50.97;33.93;;;;;;;1.95;100.00;100624.16;5133903;27;20023;-37
2022/12/09 05:43:14;;;;;;;45.88;30.58;;;;;;;2.04;100.00;100628.41;5134436;27;20660;-37
2022/12/09 05:45:40;;;;;;;46.28;31.67;;;;;;;2.03;100.00;100629.41;5133501;27;20027;-37
2022/12/09 05:48:05;;;;;;;49.47;32.97;;;;;;;2.01;100.00;100628.78;5136722;27;20076;-37
2022/12/09 05:50:31;;;;;;;42.97;30.67;;;;;;;2.12;100.00;100635.50;5138615;27;20058;-37
2022/12/09 05:52:56;;;;;;;47.97;32.13;;;;;;;2.13;100.00;100630.00;5138454;27;20327;-36
2022/12/09 05:55:21;;;;;;;51.13;36.10;;;;;;;1.97;100.00;100636.31;5137712;27;20055;-45
2022/12/09 05:57:47;;;;;;;50.07;34.10;;;;;;;1.91;100.00;100631.69;5137965;27;20062;-37
2022/12/09 06:00:13;;;;;;;53.40;36.10;;;;;;;1.86;100.00;100642.06;5137573;27;20435;-37
2022/12/09 06:02:38;;;;;;;53.00;37.15;;;;;;;1.69;100.00;100625.34;5137674;27;20054;-38
2022/12/09 06:05:04;;;;;;;51.60;33.72;;;;;;;1.75;100.00;100629.97;5137698;27;20102;-37
2022/12/09 06:07:29;;;;;;;50.95;35.10;;;;;;;1.81;100.00;100625.78;5137931;27;20374;-38
2022/12/09 06:09:55;;;;;;;54.27;36.10;;;;;;;1.75;100.00;100624.63;5137763;27;20450;-38
2022/12/09 06:12:20;;;;;;;54.67;35.00;;;;;;;1.83;100.00;100625.59;5136684;27;20042;-37
2022/12/09 06:14:46;;;;;;;49.23;34.53;;;;;;;1.80;100.00;100613.44;5137918;27;20500;-38
2022/12/09 06:17:11;;;;;;;57.93;36.07;;;;;;;1.87;100.00;100630.41;5137167;27;20257;-37
2022/12/09 06:19:36;;;;;;;50.07;33.40;;;;;;;1.92;100.00;100629.84;5137866;27;20020;-38
2022/12/09 06:22:02;;;;;;;46.00;32.57;;;;;;;1.85;100.00;100619.06;5137121;27;20146;-37
2022/12/09 06:24:27;;;;;;;46.13;29.97;;;;;;;1.87;100.00;100610.91;5137672;27;20042;-37
2022/12/09 06:26:53;;;;;;;43.00;30.60;;;;;;;1.95;100.00;100619.66;5136041;27;20379;-37
2022/12/09 06:29:18;;;;;;;44.00;30.10;;;;;;;1.91;100.00;100618.38;5138028;27;20455;-37
2022/12/09 06:31:44;;;;;;;40.87;26.80;;;;;;;2.00;100.00;100603.09;5136904;27;20038;-38
2022/12/09 06:34:09;;;;;;;45.57;30.10;;;;;;;2.00;100.00;100621.75;5136736;27;20442;-38
2022/12/09 06:36:34;;;;;;;40.43;27.53;;;;;;;2.06;100.00;100629.06;5137080;27;20027;-37
2022/12/09 06:39:01;;;;;;;44.77;30.90;;;;;;;1.90;100.00;100614.00;5136787;27;20360;-37
2022/12/09 06:41:26;;;;;;;40.42;28.92;;;;;;;1.87;100.00;100602.91;5137087;27;20060;-37
2022/12/09 06:43:52;;;;;;;43.00;30.57;;;;;;;1.82;100.00;100607.94;5136903;27;20063;-37
2022/12/09 06:46:21;;;;;;;41.00;30.13;;;;;;;1.92;100.00;100627.19;5136841;27;20421;-37
2022/12/09 06:48:47;;;;;;;44.53;30.48;;;;;;;1.89;100.00;100624.88;5137610;27;20027;-37
2022/12/09 06:51:13;;;;;;;44.08;29.80;;;;;;;1.88;100.00;100618.72;5136403;27;20034;-38
2022/12/09 06:53:39;;;;;;;44.70;30.90;;;;;;;1.96;100.00;100628.50;5137505;27;20337;-37
2022/12/09 06:56:07;;;;;;;43.28;29.65;;;;;;;1.94;100.00;100625.97;5136338;27;20023;-37
2022/12/09 06:58:32;;;;;;;44.53;32.08;;;;;;;1.86;100.00;100623.41;5136431;27;20155;-36
2022/12/09 07:01:12;;;;;;;47.47;31.40;;;;;;;1.90;100.00;100639.84;5136525;27;20043;-37
2022/12/09 07:03:38;;;;;;;42.45;30.77;;;;;;;1.83;100.00;100642.41;5137260;27;20035;-37
2022/12/09 07:06:04;;;;;;;45.90;33.15;;;;;;;1.82;100.00;100637.28;5135124;27;20023;-37
2022/12/09 07:08:29;;;;;;;41.67;31.08;;;;;;;1.79;100.00;100641.13;5136975;27;20321;-37
2022/12/09 07:10:55;;;;;;;46.63;31.10;;;;;;;1.73;100.00;100634.66;5136486;27;20096;-37
2022/12/09 07:13:20;;;;;;;43.00;30.77;;;;;;;1.75;100.00;100645.97;5136656;27;20542;-37
2022/12/09 07:15:45;;;;;;;47.60;31.63;;;;;;;1.59;100.00;100630.09;5137175;27;20047;-37
2022/12/09 07:18:10;;;;;;;44.10;31.87;;;;;;;1.58;100.00;100635.63;5136509;27;20034;-37
2022/12/09 07:20:36;;;;;;;44.63;31.20;;;;;;;1.52;100.00;100638.00;5135909;27;20116;-37
2022/12/09 07:23:01;;;;;;;40.57;29.17;;;;;;;1.47;100.00;100629.69;5134876;27;20426;-37
2022/12/09 07:25:26;;;;;;;42.50;30.90;;;;;;;1.41;100.00;100634.88;5136094;27;20122;-37
2022/12/09 07:27:52;;;;;;;43.37;29.03;;;;;;;1.30;100.00;100630.78;5134453;27;20158;-37
2022/12/09 07:30:17;;;;;;;35.20;26.03;;;;;;;1.45;100.00;100646.84;5136074;27;20026;-37
2022/12/09 07:32:42;;;;;;;39.17;28.50;;;;;;;1.42;100.00;100652.56;5136520;27;20058;-42
2022/12/09 07:35:09;;;;;;;38.53;27.27;;;;;;;1.31;100.00;100626.28;5135725;27;20027;-37
2022/12/09 07:37:34;;;;;;;32.63;23.90;;;;;;;1.47;100.00;100659.00;5135820;27;20068;-37
2022/12/09 07:39:59;;;;;;;41.23;28.33;;;;;;;1.29;100.00;100659.28;5134527;27;20040;-37
2022/12/09 07:42:25;;;;;;;32.93;25.50;;;;;;;1.35;100.00;100673.72;5136034;27;20171;-38
2022/12/09 07:44:50;;;;;;;37.83;27.90;;;;;;;1.30;100.00;100668.09;5135181;27;20031;-38
2022/12/09 07:47:15;;;;;;;38.43;28.13;;;;;;;1.25;100.00;100668.59;5135434;27;20102;-38
2022/12/09 07:49:41;;;;;;;35.27;28.17;;;;;;;1.23;100.00;100661.81;5135753;27;20035;-37
2022/12/09 07:52:06;;;;;;;39.90;28.93;;;;;;;1.23;100.00;100667.16;5135449;27;20030;-38
2022/12/09 07:54:31;;;;;;;36.73;26.63;;;;;;;1.21;100.00;100671.78;5135032;27;20023;-37
2022/12/09 07:56:57;;;;;;;41.43;28.83;;;;;;;1.15;100.00;100670.66;5135577;27;20058;-37
2022/12/09 07:59:22;;;;;;;32.00;24.90;;;;;;;1.17;100.00;100668.66;5135594;27;20034;-38
2022/12/09 08:01:47;;;;;;;31.77;25.03;;;;;;;1.21;100.00;100672.63;5135504;27;20031;-36
2022/12/09 08:04:13;;;;;;;33.90;25.33;;;;;;;1.24;100.00;100666.97;5135518;27;20071;-37
2022/12/09 08:06:38;;;;;;;36.07;26.57;;;;;;;1.16;100.00;100674.97;5136082;27;20061;-37
2022/12/09 08:09:06;;;;;;;38.53;28.33;;;;;;;1.18;100.00;100670.31;5135289;27;20114;-38
2022/12/09 08:11:32;;;;;;;38.80;28.17;;;;;;;1.15;100.00;100677.81;5135318;27;20043;-37
2022/12/09 08:14:00;;;;;;;35.22;25.70;;;;;;;1.14;100.00;100671.66;5135114;27;20340;-37
2022/12/09 08:16:25;;;;;;;34.20;27.05;;;;;;;1.11;100.00;100671.19;5135570;27;20046;-37
2022/12/09 08:18:52;;;;;;;36.42;27.50;;;;;;;1.08;100.00;100674.22;5134937;27;20027;-37
2022/12/09 08:21:20;;;;;;;37.95;26.75;;;;;;;1.05;100.00;100677.22;5134105;27;20034;-37
2022/12/09 08:23:46;;;;;;;34.80;26.58;;;;;;;0.97;100.00;100673.56;5135959;27;20087;-37
2022/12/09 08:26:14;;;;;;;33.83;26.58;;;;;;;0.99;100.00;100684.88;5134806;27;20427;-37
2022/12/09 08:28:39;;;;;;;35.85;27.75;;;;;;;0.92;100.00;100677.75;5134733;27;20472;-37
2022/12/09 08:31:09;;;;;;;31.25;25.27;;;;;;;1.06;100.00;100679.69;5135149;27;20027;-37
2022/12/09 08:33:35;;;;;;;33.42;26.83;;;;;;;1.01;100.00;100677.53;5134566;27;20126;-37
2022/12/09 08:36:02;;;;;;;35.88;28.13;;;;;;;0.94;100.00;100665.09;5134574;27;20027;-37
2022/12/09 08:38:28;;;;;;;34.40;27.60;;;;;;;0.89;100.00;100675.44;5134745;27;20030;-37
2022/12/09 08:40:53;;;;;;;35.03;26.80;;;;;;;0.93;100.00;100679.44;5133433;27;20023;-37
2022/12/09 08:43:18;;;;;;;34.10;25.07;;;;;;;0.83;100.00;100668.13;5134804;27;20027;-37
2022/12/09 08:45:44;;;;;;;44.23;26.30;;;;;;;0.84;100.00;100664.47;5134694;27;20380;-37
2022/12/09 08:48:09;;;;;;;67.57;28.17;;;;;;;0.89;100.00;100672.78;5135283;27;20023;-37
2022/12/09 08:50:34;;;;;;;65.90;28.57;;;;;;;0.87;100.00;100677.44;5134234;27;20378;-37
2022/12/09 08:53:00;;;;;;;58.10;25.80;;;;;;;0.92;100.00;100675.09;5134572;27;20035;-37
2022/12/09 08:55:26;;;;;;;60.30;27.10;;;;;;;0.80;100.00;100649.84;5134928;27;20373;-37
2022/12/09 08:57:51;;;;;;;43.28;27.00;;;;;;;0.92;100.00;100675.09;5134651;27;20023;-37
2022/12/09 09:00:17;;;;;;;31.75;24.35;;;;;;;1.01;100.00;100674.06;5134313;27;20040;-37
2022/12/09 09:02:43;;;;;;;64.85;26.58;;;;;;;0.86;100.00;100673.13;5134237;27;20027;-37
2022/12/09 09:05:08;;;;;;;36.80;27.03;;;;;;;0.88;100.00;100673.75;5134256;27;20126;-37
2022/12/09 09:07:33;;;;;;;33.90;26.13;;;;;;;0.91;100.00;100687.56;5134520;27;20023;-37
2022/12/09 09:09:59;;;;;;;75.53;27.70;;;;;;;0.80;100.00;100687.13;5134248;27;20023;-37
2022/12/09 09:12:25;;;;;;;70.63;27.27;;;;;;;0.76;100.00;100687.44;5134097;27;20031;-37
2022/12/09 09:14:53;;;;;;;72.03;26.90;;;;;;;0.71;100.00;100686.31;5134815;27;20058;-37
2022/12/09 09:17:19;;;;;;;54.90;25.33;;;;;;;0.71;100.00;100688.97;5134185;27;20431;-37
2022/12/09 09:19:44;;;;;;;160.85;30.95;;;;;;;0.54;100.00;100690.00;5134540;27;20152;-37
2022/12/09 09:22:09;;;;;;;146.77;28.63;;;;;;;0.46;100.00;100697.00;5132095;27;20076;-37
2022/12/09 09:24:35;;;;;;;125.30;28.57;;;;;;;0.42;100.00;100697.50;5133783;27;20031;-37
2022/12/09 09:27:00;;;;;;;90.87;26.03;;;;;;;0.39;100.00;100703.16;5134210;27;20027;-37
2022/12/09 09:29:25;;;;;;;65.57;25.87;;;;;;;0.43;100.00;100707.13;5134033;27;20471;-37
2022/12/09 09:31:52;;;;;;;183.93;31.40;;;;;;;0.26;100.00;100719.63;5133906;27;20037;-37
2022/12/09 09:34:19;;;;;;;125.15;28.73;;;;;;;0.20;100.00;100709.69;5132675;28;20110;-37
2022/12/09 09:36:45;;;;;;;64.43;26.30;;;;;;;0.28;100.00;100706.16;5133725;27;20034;-37
2022/12/09 09:39:11;;;;;;;58.20;27.15;;;;;;;0.35;100.00;100710.66;5134060;27;20031;-37
2022/12/09 09:41:54;;;;;;;63.92;25.65;;;;;;;0.44;100.00;100706.13;5133978;27;20015;-37
2022/12/09 09:44:45;;;;;;;47.35;25.83;;;;;;;0.41;100.00;100701.16;5132935;28;20489;-36
2022/12/09 09:47:42;;;;;;;39.97;26.20;;;;;;;0.66;100.00;100708.09;5133922;27;20027;-37
2022/12/09 09:50:37;;;;;;;40.72;25.50;;;;;;;0.61;100.00;100710.44;5132929;28;20031;-37
2022/12/09 09:53:30;;;;;;;43.22;26.25;;;;;;;0.69;100.00;100710.44;5134447;27;20019;-36
2022/12/09 09:55:59;;;;;;;54.15;29.48;;;;;;;0.65;100.00;100703.78;5131143;27;20042;-37
2022/12/09 09:58:50;;;;;;;36.25;27.30;;;;;;;0.77;100.00;100701.59;5133712;27;20024;-37
2022/12/09 10:01:17;;;;;;;48.22;29.00;;;;;;;0.71;100.00;100702.28;5133717;27;20080;-36
2022/12/09 10:03:58;;;;;;;45.45;27.83;;;;;;;0.65;100.00;100709.13;5133426;27;20023;-36
2022/12/09 10:06:44;;;;;;;47.03;27.80;;;;;;;0.39;100.00;100688.03;5133880;27;20064;-37
2022/12/09 10:09:37;;;;;;;39.10;28.38;;;;;;;0.49;100.00;100699.34;5133631;27;20054;-37
2022/12/09 10:12:14;;;;;;;36.90;26.48;;;;;;;0.60;100.00;100705.31;5133250;27;20110;-37
2022/12/09 10:15:00;;;;;;;44.00;29.00;;;;;;;0.41;100.00;100698.50;5132511;28;20397;-37
2022/12/09 10:17:44;;;;;;;37.47;27.08;;;;;;;0.48;100.00;100702.16;5133815;27;20090;-37
2022/12/09 10:20:13;;;;;;;41.10;28.77;;;;;;;0.59;100.00;100693.84;5133168;27;20035;-37
2022/12/09 10:22:52;;;;;;;35.78;27.27;;;;;;;0.54;100.00;100685.53;5133358;27;20031;-37
2022/12/09 10:25:25;;;;;;;41.40;29.63;;;;;;;0.51;100.00;100688.50;5134180;27;20051;-37
2022/12/09 10:28:34;;;;;;;37.22;27.70;;;;;;;0.70;100.00;100697.97;5133759;27;20187;-37
2022/12/09 10:30:59;;;;;;;39.92;28.98;;;;;;;0.77;100.00;100693.59;5132938;28;20039;-38
2022/12/09 10:33:32;;;;;;;35.63;26.30;;;;;;;0.87;100.00;100677.44;5133339;27;20038;-37
2022/12/09 10:35:57;;;;;;;34.95;24.73;;;;;;;1.07;100.00;100697.31;5137534;27;20023;-37
2022/12/09 10:38:24;;;;;;;38.03;28.27;;;;;;;1.00;100.00;100686.53;5137660;27;20030;-37
2022/12/09 10:40:49;;;;;;;;;;;;;;;1.10;100.00;100686.34;5137703;27;20034;-37
2022/12/09 10:43:37;;;;;;;36.30;26.23;;;;;;;1.15;100.00;100688.47;5137453;27;19907;-37
2022/12/09 10:46:07;;;;;;;34.75;26.05;;;;;;;1.21;100.00;100687.78;5137684;27;20059;-37
2022/12/09 10:48:36;;;;;;;36.17;27.02;;;;;;;1.24;100.00;100680.28;5137065;27;20035;-37
2022/12/09 10:51:26;;;;;;;40.03;29.10;;;;;;;1.33;100.00;100674.91;5136401;27;20467;-36
2022/12/09 10:54:00;;;;;;;38.38;27.38;;;;;;;1.37;100.00;100676.22;5073733;28;20389;-37
2022/12/09 10:56:33;;;;;;;33.58;25.92;;;;;;;1.40;100.00;100679.34;5073252;28;20048;-37
2022/12/09 10:59:28;;;;;;;38.30;26.75;;;;;;;1.37;100.00;100681.56;5073543;28;20055;-37
2022/12/09 11:02:00;;;;;;;35.65;26.77;;;;;;;1.23;100.00;100678.63;5072929;28;20484;-37
2022/12/09 11:04:29;;;;;;;35.00;26.45;;;;;;;1.18;100.00;100682.81;5073818;28;20094;-36
2022/12/09 11:07:22;;;;;;;35.72;26.33;;;;;;;1.18;100.00;100675.66;5072885;28;20107;-36
2022/12/09 11:09:50;;;;;;;36.55;27.05;;;;;;;1.07;100.00;100678.69;5070847;28;20393;-36
2022/12/09 11:12:28;;;;;;;32.58;24.17;;;;;;;1.12;100.00;100663.00;5072716;28;20404;-36
2022/12/09 11:14:55;;;;;;;34.35;24.10;;;;;;;1.20;100.00;100670.97;5072818;28;20059;-37
2022/12/09 11:17:23;;;;;;;36.28;25.13;;;;;;;1.18;100.00;100665.00;5072854;28;20064;-37
2022/12/09 11:19:54;;;;;;;34.30;25.23;;;;;;;1.32;100.00;100678.56;5073088;28;20080;-37